Time;durP1;ratioP1;P1;durP2;ratioP2;P2;SDS_P1;SDS_P2;PMS_P1;PMS_P2;Temp;Humidity;BMP_temperature;BMP_pressure;BME280_temperature;BME280_humidity;BME280_pressure;Samples;Min_cycle;Max_cycle;Signal;HPM_P1;HPM_P2
2022/12/05 00:01:27;;;;;;;63.28;24.23;;;;;;;;;;5096043;28;20130;-77
2022/12/05 00:03:54;;;;;;;58.17;22.63;;;;;;;;;;5084751;28;20453;-77
2022/12/05 00:06:19;;;;;;;56.47;22.40;;;;;;;;;;5096388;28;20051;-77
2022/12/05 00:08:45;;;;;;;64.53;21.17;;;;;;;;;;5096093;28;20578;-77
2022/12/05 00:11:15;;;;;;;66.90;26.95;;;;;;;;;;5079259;28;20034;-77
2022/12/05 00:13:41;;;;;;;65.13;25.52;;;;;;;;;;5114330;28;20434;-75
2022/12/05 00:16:11;;;;;;;64.63;24.33;;;;;;;;;;5113951;28;20153;-76
2022/12/05 00:18:36;;;;;;;58.95;22.65;;;;;;;;;;5096261;28;20114;-77
2022/12/05 00:21:02;;;;;;;53.28;21.33;;;;;;;;;;5096004;28;20122;-76
2022/12/05 00:23:27;;;;;;;62.75;24.35;;;;;;;;;;5095901;28;20027;-77
2022/12/05 00:25:53;;;;;;;54.53;21.73;;;;;;;;;;5095764;28;20069;-77
2022/12/05 00:28:18;;;;;;;57.75;22.85;;;;;;;;;;5114013;28;20028;-76
2022/12/05 00:30:44;;;;;;;56.13;22.45;;;;;;;;;;5113761;28;20034;-77
2022/12/05 00:33:09;;;;;;;62.65;24.80;;;;;;;;;;5114028;28;20114;-77
2022/12/05 00:35:35;;;;;;;59.67;23.67;;;;;;;;;;5113898;28;20095;-77
2022/12/05 00:38:00;;;;;;;51.85;21.95;;;;;;;;;;5113866;28;20036;-77
2022/12/05 00:40:25;;;;;;;63.80;25.20;;;;;;;;;;5113907;28;20034;-76
2022/12/05 00:42:51;;;;;;;58.25;21.40;;;;;;;;;;5114045;28;20031;-75
2022/12/05 00:45:16;;;;;;;53.65;21.45;;;;;;;;;;5095552;28;20119;-77
2022/12/05 00:47:42;;;;;;;49.20;21.00;;;;;;;;;;5114293;28;20070;-76
2022/12/05 00:50:07;;;;;;;40.70;17.10;;;;;;;;;;5079164;28;20068;-77
2022/12/05 00:52:33;;;;;;;54.40;21.42;;;;;;;;;;5081839;28;20107;-77
2022/12/05 00:54:58;;;;;;;48.85;21.23;;;;;;;;;;5117601;28;20027;-78
2022/12/05 00:57:24;;;;;;;48.72;20.27;;;;;;;;;;5099310;28;20030;-77
2022/12/05 00:59:49;;;;;;;47.38;20.88;;;;;;;;;;5082100;28;20036;-77
2022/12/05 01:02:15;;;;;;;48.85;20.65;;;;;;;;;;5082972;28;20130;-77
2022/12/05 01:04:40;;;;;;;51.10;21.10;;;;;;;;;;5082593;28;20060;-78
2022/12/05 01:07:06;;;;;;;47.03;20.58;;;;;;;;;;5098992;28;20111;-76
2022/12/05 01:09:31;;;;;;;47.28;20.90;;;;;;;;;;5082014;28;20111;-77
2022/12/05 01:11:57;;;;;;;44.08;18.08;;;;;;;;;;5082302;28;20445;-77
2022/12/05 01:14:23;;;;;;;45.95;19.52;;;;;;;;;;5098898;28;20437;-77
2022/12/05 01:16:49;;;;;;;45.53;19.50;;;;;;;;;;5082011;28;20031;-77
2022/12/05 01:19:17;;;;;;;51.60;20.73;;;;;;;;;;5081992;28;20455;-76
2022/12/05 01:21:43;;;;;;;48.45;19.58;;;;;;;;;;5099647;28;20035;-77
2022/12/05 01:24:09;;;;;;;49.45;20.13;;;;;;;;;;5117065;28;20034;-77
2022/12/05 01:26:35;;;;;;;42.40;18.58;;;;;;;;;;5081573;28;20027;-77
2022/12/05 01:29:00;;;;;;;42.63;18.67;;;;;;;;;;5116779;28;20027;-77
2022/12/05 01:31:33;;;;;;;43.05;18.02;;;;;;;;;;5117049;28;20058;-77
2022/12/05 01:34:00;;;;;;;42.83;17.35;;;;;;;;;;5098502;28;20058;-77
2022/12/05 01:36:26;;;;;;;37.80;17.60;;;;;;;;;;5116635;28;20023;-77
2022/12/05 01:38:51;;;;;;;38.10;17.77;;;;;;;;;;5082091;28;20049;-77
2022/12/05 01:41:30;;;;;;;41.75;17.27;;;;;;;;;;5098376;28;20373;-77
2022/12/05 01:43:57;;;;;;;39.15;17.13;;;;;;;;;;5082578;28;20063;-78
2022/12/05 01:46:23;;;;;;;34.90;17.08;;;;;;;;;;5098371;28;20027;-77
2022/12/05 01:48:49;;;;;;;40.25;18.13;;;;;;;;;;5098306;28;20453;-77
2022/12/05 01:51:15;;;;;;;40.47;18.45;;;;;;;;;;5081268;28;20079;-78
2022/12/05 01:53:40;;;;;;;36.28;16.10;;;;;;;;;;5116303;28;20039;-77
2022/12/05 01:56:06;;;;;;;35.80;16.00;;;;;;;;;;5116152;28;20023;-78
2022/12/05 01:58:34;;;;;;;39.58;17.13;;;;;;;;;;5097717;28;20024;-77
2022/12/05 02:00:59;;;;;;;44.88;19.15;;;;;;;;;;5098184;28;20062;-76
2022/12/05 02:03:25;;;;;;;42.20;18.48;;;;;;;;;;5096839;28;20059;-78
2022/12/05 02:05:51;;;;;;;43.83;18.35;;;;;;;;;;5098181;28;20035;-77
2022/12/05 02:08:17;;;;;;;36.30;15.35;;;;;;;;;;5097999;28;20392;-77
2022/12/05 02:10:50;;;;;;;45.83;19.83;;;;;;;;;;5098127;28;20035;-77
2022/12/05 02:13:28;;;;;;;52.22;20.30;;;;;;;;;;5081153;28;20122;-79
2022/12/05 02:16:02;;;;;;;45.95;21.25;;;;;;;;;;5115824;28;20384;-77
2022/12/05 02:18:27;;;;;;;44.15;17.95;;;;;;;;;;5080960;28;20063;-78
2022/12/05 02:21:20;;;;;;;48.55;20.50;;;;;;;;;;5097759;28;20116;-78
2022/12/05 02:24:00;;;;;;;47.38;21.13;;;;;;;;;;5099502;28;20031;-78
2022/12/05 02:26:46;;;;;;;42.92;18.30;;;;;;;;;;5080601;28;20035;-77
2022/12/05 02:29:36;;;;;;;44.47;17.45;;;;;;;;;;5097515;28;20030;-77
2022/12/05 02:32:04;;;;;;;46.00;17.90;;;;;;;;;;5115635;28;20106;-77
2022/12/05 02:35:03;;;;;;;44.08;17.98;;;;;;;;;;5104820;28;20023;-78
2022/12/05 02:37:31;;;;;;;45.13;18.73;;;;;;;;;;5119907;28;20092;-77
2022/12/05 02:40:04;;;;;;;50.17;21.23;;;;;;;;;;5097271;28;20346;-78
2022/12/05 02:42:48;;;;;;;53.35;19.80;;;;;;;;;;5080162;28;20079;-77
2022/12/05 02:45:14;;;;;;;51.03;19.83;;;;;;;;;;5080945;28;20129;-78
2022/12/05 02:47:45;;;;;;;45.75;21.13;;;;;;;;;;5080438;28;20036;-78
2022/12/05 02:50:13;;;;;;;46.13;18.45;;;;;;;;;;5097031;28;20031;-77
2022/12/05 02:52:38;;;;;;;47.63;18.30;;;;;;;;;;5080125;28;20052;-78
2022/12/05 02:55:04;;;;;;;53.38;20.58;;;;;;;;;;5096889;28;20031;-77
2022/12/05 02:57:30;;;;;;;47.30;20.23;;;;;;;;;;5079707;28;20059;-77
2022/12/05 02:59:55;;;;;;;52.63;22.42;;;;;;;;;;5096836;28;20054;-77
2022/12/05 03:02:33;;;;;;;43.20;20.45;;;;;;;;;;5114881;28;20027;-78
2022/12/05 03:05:19;;;;;;;43.45;18.85;;;;;;;;;;5116053;28;20058;-78
2022/12/05 03:07:45;;;;;;;49.22;19.55;;;;;;;;;;5097297;28;20034;-77
2022/12/05 03:10:11;;;;;;;54.78;20.50;;;;;;;;;;5079816;28;20023;-78
2022/12/05 03:12:49;;;;;;;53.47;23.25;;;;;;;;;;5096679;28;20027;-77
2022/12/05 03:15:21;;;;;;;40.83;16.55;;;;;;;;;;5096478;28;20528;-77
2022/12/05 03:18:03;;;;;;;46.55;18.27;;;;;;;;;;5096945;28;20023;-78
2022/12/05 03:20:33;;;;;;;42.97;16.40;;;;;;;;;;5064979;28;20096;-77
2022/12/05 03:23:11;;;;;;;48.78;18.58;;;;;;;;;;5080321;28;20375;-77
2022/12/05 03:25:55;;;;;;;52.63;20.35;;;;;;;;;;5080034;28;20031;-77
2022/12/05 03:28:24;;;;;;;46.80;18.55;;;;;;;;;;5115631;28;20118;-77
2022/12/05 03:30:52;;;;;;;45.28;18.58;;;;;;;;;;5079847;28;20028;-77
2022/12/05 03:33:25;;;;;;;50.72;20.00;;;;;;;;;;5079642;28;20032;-77
2022/12/05 03:36:08;;;;;;;46.92;18.60;;;;;;;;;;5080631;28;20038;-77
2022/12/05 03:38:38;;;;;;;54.50;20.80;;;;;;;;;;5096354;28;20016;-77
2022/12/05 03:41:18;;;;;;;52.58;20.63;;;;;;;;;;5096153;28;20081;-77
2022/12/05 03:44:08;;;;;;;55.90;19.77;;;;;;;;;;5080207;28;20019;-78
2022/12/05 03:47:00;;;;;;;44.95;19.83;;;;;;;;;;5096890;28;20028;-77
2022/12/05 03:49:44;;;;;;;47.97;18.00;;;;;;;;;;5113897;28;20027;-77
2022/12/05 03:52:11;;;;;;;49.70;18.40;;;;;;;;;;5079384;28;20044;-76
2022/12/05 03:54:40;;;;;;;48.78;20.20;;;;;;;;;;5078965;28;20036;-76
2022/12/05 03:57:22;;;;;;;48.75;19.45;;;;;;;;;;5079687;28;20038;-77
2022/12/05 04:00:00;;;;;;;46.15;19.05;;;;;;;;;;5079327;28;21022;-77
2022/12/05 04:02:29;;;;;;;48.55;17.85;;;;;;;;;;5062857;28;20065;-78
2022/12/05 04:05:05;;;;;;;50.35;19.33;;;;;;;;;;5079466;28;20123;-77
2022/12/05 04:07:31;;;;;;;43.78;18.40;;;;;;;;;;5079709;28;20023;-77
2022/12/05 04:09:58;;;;;;;43.70;17.48;;;;;;;;;;5079084;28;20042;-77
2022/12/05 04:12:27;;;;;;;47.10;18.75;;;;;;;;;;5079176;28;20028;-77
2022/12/05 04:14:55;;;;;;;50.20;17.85;;;;;;;;;;5096163;28;20055;-77
2022/12/05 04:17:32;;;;;;;48.88;19.10;;;;;;;;;;5079359;28;20034;-77
2022/12/05 04:22:53;;;;;;;42.20;17.98;;;;;;;;;;5084859;28;20042;-77
2022/12/05 04:25:33;;;;;;;57.13;21.45;;;;;;;;;;5079250;28;20027;-77
2022/12/05 04:28:08;;;;;;;49.38;19.50;;;;;;;;;;5087021;28;20080;-78
2022/12/05 04:30:45;;;;;;;47.00;18.85;;;;;;;;;;5083944;28;20540;-78
2022/12/05 04:33:26;;;;;;;54.00;19.90;;;;;;;;;;5066761;28;20031;-77
2022/12/05 04:35:53;;;;;;;46.65;18.95;;;;;;;;;;5099552;28;20512;-77
2022/12/05 04:38:29;;;;;;;57.60;20.50;;;;;;;;;;5099483;28;20027;-77
2022/12/05 04:40:57;;;;;;;50.10;20.02;;;;;;;;;;5099594;28;20147;-77
2022/12/05 04:43:23;;;;;;;49.70;19.17;;;;;;;;;;5082881;28;20291;-78
2022/12/05 04:45:49;;;;;;;52.65;18.95;;;;;;;;;;5099510;28;20047;-77
2022/12/05 04:48:15;;;;;;;56.92;21.48;;;;;;;;;;5082565;28;20024;-78
2022/12/05 04:50:40;;;;;;;47.38;18.23;;;;;;;;;;5082869;28;20452;-77
2022/12/05 04:53:07;;;;;;;53.80;19.98;;;;;;;;;;5082393;28;20051;-77
2022/12/05 04:55:33;;;;;;;56.15;18.75;;;;;;;;;;5082519;28;20028;-77
2022/12/05 04:58:11;;;;;;;48.45;15.57;;;;;;;;;;5082223;28;20093;-77
2022/12/05 05:00:44;;;;;;;45.20;16.35;;;;;;;;;;5099378;28;20027;-77
2022/12/05 05:03:31;;;;;;;46.97;16.45;;;;;;;;;;5088004;28;20083;-78
2022/12/05 05:05:57;;;;;;;46.85;16.70;;;;;;;;;;5078603;28;20561;-77
2022/12/05 05:08:24;;;;;;;53.22;18.67;;;;;;;;;;5060380;28;20063;-77
2022/12/05 05:11:02;;;;;;;39.28;15.20;;;;;;;;;;5067379;28;20180;-77
2022/12/05 05:13:27;;;;;;;50.15;19.63;;;;;;;;;;5096234;28;20028;-77
2022/12/05 05:15:53;;;;;;;43.67;17.52;;;;;;;;;;5061665;28;20035;-78
2022/12/05 05:18:18;;;;;;;52.28;19.77;;;;;;;;;;5061866;28;20365;-79
2022/12/05 05:20:44;;;;;;;45.45;19.33;;;;;;;;;;5044840;28;20032;-79
2022/12/05 05:23:09;;;;;;;42.97;16.42;;;;;;;;;;5078717;28;20134;-79
2022/12/05 05:25:34;;;;;;;45.92;16.85;;;;;;;;;;5030588;28;20032;-80
2022/12/05 05:28:00;;;;;;;49.92;19.02;;;;;;;;;;5043686;28;20505;-79
2022/12/05 05:30:25;;;;;;;47.72;18.27;;;;;;;;;;5026310;28;20489;-79
2022/12/05 05:32:51;;;;;;;53.42;21.85;;;;;;;;;;5064897;28;20059;-80
2022/12/05 05:35:17;;;;;;;51.10;18.33;;;;;;;;;;5058587;28;20036;-78
2022/12/05 05:37:42;;;;;;;52.40;20.15;;;;;;;;;;5093294;28;20046;-80
2022/12/05 05:40:09;;;;;;;48.10;19.92;;;;;;;;;;5081707;28;20028;-81
2022/12/05 05:42:35;;;;;;;52.83;20.13;;;;;;;;;;5082156;28;20024;-80
2022/12/05 05:45:00;;;;;;;61.83;23.02;;;;;;;;;;5082502;28;20043;-80
2022/12/05 05:47:26;;;;;;;57.33;21.85;;;;;;;;;;5062059;28;20027;-82
2022/12/05 05:49:53;;;;;;;59.40;21.77;;;;;;;;;;5086656;28;20028;-79
2022/12/05 05:52:22;;;;;;;51.55;18.15;;;;;;;;;;5065266;28;20482;-79
2022/12/05 05:54:51;;;;;;;64.00;21.20;;;;;;;;;;5099440;28;20059;-81
2022/12/05 05:57:19;;;;;;;62.72;21.13;;;;;;;;;;5046842;28;20461;-79
2022/12/05 06:00:06;;;;;;;60.15;22.13;;;;;;;;;;5076094;28;20044;-79
2022/12/05 06:02:33;;;;;;;62.95;19.70;;;;;;;;;;5054525;28;20035;-83
2022/12/05 06:04:59;;;;;;;59.05;21.05;;;;;;;;;;5086359;28;20473;-77
2022/12/05 06:07:24;;;;;;;58.28;20.73;;;;;;;;;;5078616;28;20020;-78
2022/12/05 06:09:51;;;;;;;58.95;21.35;;;;;;;;;;5093087;28;20032;-78
2022/12/05 06:12:16;;;;;;;61.60;21.23;;;;;;;;;;5059388;28;20035;-79
2022/12/05 06:14:42;;;;;;;59.80;21.05;;;;;;;;;;5070784;28;20114;-79
2022/12/05 06:17:07;;;;;;;50.55;19.90;;;;;;;;;;5088133;28;20039;-81
2022/12/05 06:19:32;;;;;;;54.20;19.20;;;;;;;;;;5076842;28;20032;-81
2022/12/05 06:21:58;;;;;;;54.95;20.90;;;;;;;;;;5091486;28;20035;-79
2022/12/05 06:24:23;;;;;;;55.92;20.63;;;;;;;;;;5092978;28;20028;-80
2022/12/05 06:26:49;;;;;;;47.30;18.80;;;;;;;;;;5095719;28;20437;-80
2022/12/05 06:29:14;;;;;;;53.08;19.95;;;;;;;;;;5091832;28;20036;-79
2022/12/05 06:31:40;;;;;;;54.10;19.35;;;;;;;;;;5073592;28;20040;-79
2022/12/05 06:34:06;;;;;;;55.70;20.33;;;;;;;;;;5079502;28;20340;-81
2022/12/05 06:36:37;;;;;;;55.88;19.08;;;;;;;;;;5086641;28;20043;-79
2022/12/05 06:39:03;;;;;;;58.85;21.38;;;;;;;;;;5070076;28;20036;-80
2022/12/05 06:41:32;;;;;;;59.72;19.40;;;;;;;;;;5088183;28;20035;-79
2022/12/05 06:43:58;;;;;;;49.03;18.98;;;;;;;;;;5087886;28;20028;-79
2022/12/05 06:46:26;;;;;;;49.70;16.77;;;;;;;;;;5100269;28;20023;-80
2022/12/05 06:48:54;;;;;;;62.45;21.05;;;;;;;;;;5083256;28;20039;-82
2022/12/05 06:51:21;;;;;;;63.28;22.40;;;;;;;;;;5038448;28;20062;-81
2022/12/05 06:53:47;;;;;;;65.70;22.00;;;;;;;;;;5055431;28;20051;-80
2022/12/05 06:56:14;;;;;;;54.22;19.90;;;;;;;;;;5084064;28;20024;-81
2022/12/05 06:58:43;;;;;;;59.22;23.02;;;;;;;;;;5071014;28;20051;-80
2022/12/05 07:04:02;;;;;;;61.38;22.05;;;;;;;;;;5074724;28;20086;-81
2022/12/05 07:06:27;;;;;;;48.60;18.45;;;;;;;;;;5073893;28;20031;-83
2022/12/05 07:08:53;;;;;;;61.55;22.50;;;;;;;;;;5070896;28;20099;-82
2022/12/05 07:11:18;;;;;;;49.53;19.85;;;;;;;;;;5065176;28;20449;-82
2022/12/05 07:13:47;;;;;;;53.13;19.23;;;;;;;;;;5085838;28;20126;-82
2022/12/05 07:16:12;;;;;;;48.28;19.20;;;;;;;;;;5087643;28;20088;-81
2022/12/05 07:18:38;;;;;;;55.00;18.42;;;;;;;;;;5092026;28;20699;-80
2022/12/05 07:21:07;;;;;;;41.85;17.35;;;;;;;;;;5068567;28;20079;-80
2022/12/05 07:23:33;;;;;;;52.72;18.52;;;;;;;;;;5054803;28;20043;-80
2022/12/05 07:26:02;;;;;;;47.67;17.80;;;;;;;;;;5061996;28;20427;-81
2022/12/05 07:28:28;;;;;;;53.10;19.13;;;;;;;;;;5049980;28;20571;-80
2022/12/05 07:31:04;;;;;;;50.63;19.33;;;;;;;;;;5070504;28;20139;-79
2022/12/05 07:33:30;;;;;;;50.42;18.08;;;;;;;;;;5056847;28;20037;-80
2022/12/05 07:35:59;;;;;;;41.70;16.77;;;;;;;;;;5078187;28;20057;-79
2022/12/05 07:38:25;;;;;;;47.95;16.05;;;;;;;;;;5078677;28;20021;-79
2022/12/05 07:40:50;;;;;;;43.30;18.60;;;;;;;;;;5075785;28;20097;-79
2022/12/05 07:43:16;;;;;;;44.05;16.33;;;;;;;;;;5075434;28;20182;-81
2022/12/05 07:45:41;;;;;;;43.10;17.17;;;;;;;;;;5092391;28;20040;-81
2022/12/05 07:48:07;;;;;;;44.50;16.17;;;;;;;;;;5072235;28;20020;-79
2022/12/05 07:50:32;;;;;;;37.85;15.98;;;;;;;;;;5070721;28;20039;-79
2022/12/05 07:52:59;;;;;;;42.22;15.65;;;;;;;;;;5075074;28;20040;-82
2022/12/05 07:55:24;;;;;;;40.05;16.00;;;;;;;;;;5056273;28;20032;-79
2022/12/05 07:57:50;;;;;;;42.22;17.30;;;;;;;;;;5093509;28;20032;-78
2022/12/05 08:00:22;;;;;;;42.83;14.80;;;;;;;;;;5083871;28;20039;-79
2022/12/05 08:02:47;;;;;;;37.17;15.18;;;;;;;;;;5077366;28;20424;-79
2022/12/05 08:05:13;;;;;;;37.58;13.98;;;;;;;;;;5076732;28;20043;-77
2022/12/05 08:07:38;;;;;;;37.22;15.05;;;;;;;;;;5094469;28;20457;-78
2022/12/05 08:10:04;;;;;;;38.78;14.00;;;;;;;;;;5113062;28;20091;-78
2022/12/05 08:12:30;;;;;;;36.35;15.43;;;;;;;;;;5077605;28;20038;-79
2022/12/05 08:14:55;;;;;;;38.20;15.05;;;;;;;;;;5062077;28;20036;-75
2022/12/05 08:17:21;;;;;;;38.05;15.60;;;;;;;;;;5112886;28;20036;-80
2022/12/05 08:19:46;;;;;;;29.80;11.98;;;;;;;;;;5110705;28;20027;-80
2022/12/05 08:22:12;;;;;;;33.30;14.90;;;;;;;;;;5066215;28;20072;-80
2022/12/05 08:24:38;;;;;;;35.65;15.88;;;;;;;;;;5073647;28;20396;-79
2022/12/05 08:27:04;;;;;;;35.55;15.93;;;;;;;;;;5087197;28;20031;-82
2022/12/05 08:29:29;;;;;;;37.28;15.05;;;;;;;;;;5070446;28;20093;-82
2022/12/05 08:31:55;;;;;;;37.55;13.05;;;;;;;;;;5079640;28;20479;-80
2022/12/05 08:34:21;;;;;;;34.60;13.20;;;;;;;;;;5084828;28;20035;-81
2022/12/05 08:36:46;;;;;;;31.10;12.65;;;;;;;;;;5081958;28;20173;-79
2022/12/05 08:39:15;;;;;;;33.47;13.82;;;;;;;;;;5089648;28;20123;-81
2022/12/05 08:41:41;;;;;;;37.38;14.52;;;;;;;;;;5068059;28;20035;-80
2022/12/05 08:44:09;;;;;;;28.92;12.57;;;;;;;;;;5080525;28;20109;-84
2022/12/05 08:46:35;;;;;;;33.97;14.93;;;;;;;;;;5062323;28;20032;-83
2022/12/05 08:52:09;;;;;;;28.45;10.25;;;;;;;;;;5037172;28;20099;-86
2022/12/05 08:55:21;;;;;;;31.40;12.98;;;;;;;;;;5067009;28;20396;-88
2022/12/05 08:57:47;;;;;;;36.60;12.93;;;;;;;;;;5041777;28;20032;-88
2022/12/05 09:00:13;;;;;;;29.42;11.80;;;;;;;;;;5065074;28;20043;-84
2022/12/05 09:02:40;;;;;;;30.17;12.15;;;;;;;;;;5084861;28;20032;-80
2022/12/05 09:05:06;;;;;;;28.17;12.77;;;;;;;;;;5076067;28;20052;-81
2022/12/05 09:07:33;;;;;;;28.02;12.32;;;;;;;;;;5074716;28;20028;-80
2022/12/05 09:09:58;;;;;;;26.58;12.60;;;;;;;;;;5068878;28;20111;-80
2022/12/05 09:12:24;;;;;;;33.58;13.10;;;;;;;;;;5073562;28;20366;-78
2022/12/05 09:14:49;;;;;;;24.58;9.48;;;;;;;;;;5073973;28;20028;-82
2022/12/05 09:17:15;;;;;;;29.13;12.80;;;;;;;;;;5073176;28;20097;-84
2022/12/05 09:19:40;;;;;;;28.40;12.75;;;;;;;;;;5069308;28;20115;-81
2022/12/05 09:22:06;;;;;;;31.48;14.27;;;;;;;;;;5073880;28;20036;-82
2022/12/05 09:24:31;;;;;;;27.17;13.00;;;;;;;;;;5071880;28;20454;-78
2022/12/05 09:26:57;;;;;;;30.98;13.65;;;;;;;;;;5069662;28;20870;-79
2022/12/05 09:29:24;;;;;;;29.10;12.20;;;;;;;;;;5071719;28;20028;-78
2022/12/05 09:31:51;;;;;;;25.95;12.13;;;;;;;;;;5075080;28;20035;-80
2022/12/05 09:34:16;;;;;;;27.13;12.18;;;;;;;;;;5065924;28;20025;-79
2022/12/05 09:36:42;;;;;;;24.63;11.65;;;;;;;;;;5063463;28;20086;-78
2022/12/05 09:39:09;;;;;;;25.70;11.73;;;;;;;;;;5070347;28;20074;-79
2022/12/05 09:42:08;;;;;;;26.88;12.20;;;;;;;;;;5069138;28;20097;-82
2022/12/05 09:44:40;;;;;;;21.50;10.68;;;;;;;;;;5055882;28;20044;-79
2022/12/05 09:47:09;;;;;;;23.73;10.75;;;;;;;;;;5069009;28;20043;-79
2022/12/05 09:49:34;;;;;;;25.88;11.18;;;;;;;;;;5071465;28;20028;-79
2022/12/05 09:52:00;;;;;;;25.98;11.48;;;;;;;;;;5052897;28;20049;-78
2022/12/05 09:54:26;;;;;;;28.20;12.32;;;;;;;;;;5069897;28;20129;-79
2022/12/05 09:56:58;;;;;;;25.70;12.95;;;;;;;;;;5074241;28;20583;-80
2022/12/05 09:59:24;;;;;;;26.83;11.63;;;;;;;;;;5053763;28;20377;-79
2022/12/05 10:02:20;;;;;;;25.52;11.52;;;;;;;;;;5074739;28;20043;-80
2022/12/05 10:05:00;;;;;;;21.35;10.68;;;;;;;;;;5096082;28;20414;-81
2022/12/05 10:07:25;;;;;;;28.27;14.68;;;;;;;;;;5057727;28;20028;-78
2022/12/05 10:10:10;;;;;;;29.48;13.60;;;;;;;;;;5090200;28;20484;-81
2022/12/05 10:12:42;;;;;;;21.98;10.13;;;;;;;;;;5072225;28;20027;-78
2022/12/05 10:15:33;;;;;;;23.15;10.45;;;;;;;;;;5072190;28;20625;-78
2022/12/05 10:18:02;;;;;;;21.42;10.82;;;;;;;;;;5071583;28;20032;-78
2022/12/05 10:20:39;;;;;;;19.00;9.80;;;;;;;;;;5043116;28;20040;-78
2022/12/05 10:23:09;;;;;;;19.50;10.25;;;;;;;;;;5074435;28;20047;-80
2022/12/05 10:25:35;;;;;;;24.25;11.40;;;;;;;;;;5045414;28;20024;-79
2022/12/05 10:28:03;;;;;;;22.58;10.43;;;;;;;;;;5057143;28;20115;-80
2022/12/05 10:30:32;;;;;;;20.17;9.82;;;;;;;;;;5040094;28;20072;-81
2022/12/05 10:32:57;;;;;;;20.65;10.52;;;;;;;;;;5055156;28;20031;-79
2022/12/05 10:35:31;;;;;;;23.70;11.13;;;;;;;;;;5090739;28;20538;-79
2022/12/05 10:38:04;;;;;;;24.25;11.13;;;;;;;;;;5090170;28;20028;-79
2022/12/05 10:40:34;;;;;;;31.20;12.77;;;;;;;;;;5056703;28;20632;-79
2022/12/05 10:43:00;;;;;;;34.70;13.10;;;;;;;;;;5071332;28;20080;-77
2022/12/05 10:45:28;;;;;;;26.35;11.55;;;;;;;;;;5035729;28;20024;-77
2022/12/05 10:47:55;;;;;;;34.60;13.98;;;;;;;;;;5075588;28;20029;-81
2022/12/05 10:50:42;;;;;;;34.03;13.18;;;;;;;;;;5054102;28;20035;-80
2022/12/05 10:53:14;;;;;;;24.63;10.80;;;;;;;;;;5053500;28;20049;-80
2022/12/05 10:55:41;;;;;;;25.73;10.77;;;;;;;;;;5053717;28;20039;-79
2022/12/05 10:58:22;;;;;;;24.20;9.48;;;;;;;;;;5074546;28;20110;-79
2022/12/05 11:00:54;;;;;;;23.17;9.82;;;;;;;;;;5068921;28;20032;-79
2022/12/05 11:03:23;;;;;;;24.20;10.30;;;;;;;;;;5054301;28;20043;-78
2022/12/05 11:05:49;;;;;;;27.90;10.98;;;;;;;;;;5057838;28;20436;-79
2022/12/05 11:08:22;;;;;;;24.48;10.85;;;;;;;;;;5062669;28;20192;-78
2022/12/05 11:10:48;;;;;;;37.15;13.77;;;;;;;;;;5076119;28;20030;-77
2022/12/05 11:13:23;;;;;;;32.55;13.70;;;;;;;;;;5075925;28;20032;-76
2022/12/05 11:15:49;;;;;;;30.25;12.55;;;;;;;;;;5093347;28;20069;-78
2022/12/05 11:18:23;;;;;;;39.53;16.25;;;;;;;;;;5071518;28;20056;-78
2022/12/05 11:20:49;;;;;;;38.88;15.95;;;;;;;;;;5071152;28;20056;-79
2022/12/05 11:23:22;;;;;;;33.03;11.77;;;;;;;;;;5057757;28;20533;-80
2022/12/05 11:25:47;;;;;;;38.85;14.45;;;;;;;;;;5062315;28;20021;-79
2022/12/05 11:28:16;;;;;;;35.00;12.55;;;;;;;;;;5057144;28;20035;-78
2022/12/05 11:30:56;;;;;;;33.60;13.50;;;;;;;;;;5092161;28;20039;-80
2022/12/05 11:33:26;;;;;;;33.28;13.02;;;;;;;;;;5056786;28;20760;-78
2022/12/05 11:38:40;;;;;;;39.63;12.77;;;;;;;;;;5058288;28;20164;-80
2022/12/05 11:41:35;;;;;;;28.88;11.93;;;;;;;;;;5081249;28;20056;-85
2022/12/05 11:44:22;;;;;;;37.90;12.00;;;;;;;;;;5086978;28;20107;-82
2022/12/05 11:46:50;;;;;;;27.80;12.52;;;;;;;;;;5090262;28;20067;-81
2022/12/05 11:49:38;;;;;;;32.78;12.75;;;;;;;;;;5108556;28;20047;-80
2022/12/05 11:52:30;;;;;;;35.00;12.85;;;;;;;;;;5098060;28;20032;-80
2022/12/05 11:55:04;;;;;;;33.22;11.80;;;;;;;;;;5102707;28;20031;-82
2022/12/05 11:57:42;;;;;;;30.98;11.45;;;;;;;;;;5094471;28;20032;-85
2022/12/05 12:00:16;;;;;;;30.65;11.60;;;;;;;;;;5054302;28;20035;-82
2022/12/05 12:02:54;;;;;;;31.90;11.85;;;;;;;;;;5069833;28;20600;-81
2022/12/05 12:05:38;;;;;;;33.20;12.18;;;;;;;;;;5088080;28;20021;-80
2022/12/05 12:08:26;;;;;;;31.13;12.82;;;;;;;;;;5054047;28;20027;-81
2022/12/05 12:11:10;;;;;;;37.05;13.52;;;;;;;;;;5076340;28;20124;-80
2022/12/05 12:13:55;;;;;;;35.30;13.52;;;;;;;;;;5080177;28;20032;-78
2022/12/05 12:16:35;;;;;;;39.67;13.93;;;;;;;;;;5076866;28;20024;-80
2022/12/05 12:19:09;;;;;;;33.03;13.00;;;;;;;;;;5074805;28;20027;-80
2022/12/05 12:22:13;;;;;;;39.90;14.35;;;;;;;;;;5071315;28;20040;-80
2022/12/05 12:24:42;;;;;;;34.55;13.15;;;;;;;;;;5002551;28;20634;-79
2022/12/05 12:27:53;;;;;;;32.38;14.30;;;;;;;;;;5099432;28;20081;-80
2022/12/05 12:30:48;;;;;;;40.83;14.35;;;;;;;;;;5093063;28;20131;-78
2022/12/05 12:33:33;;;;;;;34.17;14.48;;;;;;;;;;5060236;28;20040;-78
2022/12/05 12:36:08;;;;;;;39.40;14.95;;;;;;;;;;5073391;28;20028;-81
2022/12/05 12:38:49;;;;;;;36.70;15.35;;;;;;;;;;5089953;28;20035;-80
2022/12/05 12:41:46;;;;;;;35.72;14.73;;;;;;;;;;5075710;28;20488;-80
2022/12/05 12:44:33;;;;;;;37.00;13.30;;;;;;;;;;5076406;28;20513;-80
2022/12/05 12:47:00;;;;;;;35.30;14.48;;;;;;;;;;5091634;28;20530;-81
2022/12/05 12:49:38;;;;;;;42.10;15.43;;;;;;;;;;5042766;28;20456;-80
2022/12/05 12:52:09;;;;;;;39.92;15.45;;;;;;;;;;5055403;28;20045;-81
2022/12/05 12:55:04;;;;;;;36.92;15.43;;;;;;;;;;5057082;28;20021;-80
2022/12/05 12:58:07;;;;;;;39.85;15.35;;;;;;;;;;5069291;28;20446;-80
2022/12/05 13:00:49;;;;;;;40.55;14.82;;;;;;;;;;5074716;28;20052;-81
2022/12/05 13:03:18;;;;;;;34.35;13.52;;;;;;;;;;5073770;28;20120;-81
2022/12/05 13:05:57;;;;;;;36.00;14.50;;;;;;;;;;5074342;28;20024;-80
2022/12/05 13:08:27;;;;;;;34.78;14.57;;;;;;;;;;5059021;28;20107;-81
2022/12/05 13:10:53;;;;;;;39.53;15.85;;;;;;;;;;5075171;28;20032;-86
2022/12/05 13:13:24;;;;;;;38.63;17.27;;;;;;;;;;5074687;28;20033;-85
2022/12/05 13:15:53;;;;;;;39.65;17.05;;;;;;;;;;5077545;28;20589;-79
2022/12/05 13:18:21;;;;;;;36.42;15.20;;;;;;;;;;5075741;28;20063;-81
2022/12/05 13:20:52;;;;;;;39.83;17.52;;;;;;;;;;5057714;28;20351;-81
2022/12/05 13:23:20;;;;;;;40.13;16.30;;;;;;;;;;5058101;28;20056;-79
2022/12/05 13:25:47;;;;;;;48.13;17.70;;;;;;;;;;5074723;28;20043;-78
2022/12/05 13:28:27;;;;;;;38.00;15.93;;;;;;;;;;5075367;28;20024;-80
2022/12/05 13:31:15;;;;;;;;;;;;;;;;;;5077068;28;20032;-79
2022/12/05 13:33:48;;;;;;;30.60;14.07;;;;;;;;;;5070333;28;19953;-80
2022/12/05 13:42:15;;;;;;;40.17;16.55;;;;;;;;;;5075236;28;20090;-79
2022/12/05 13:44:48;;;;;;;37.88;16.05;;;;;;;;;;5075430;28;20125;-79
2022/12/05 13:47:34;;;;;;;45.45;17.70;;;;;;;;;;5076329;28;20215;-80
2022/12/05 13:50:13;;;;;;;56.47;20.70;;;;;;;;;;5044217;28;20045;-81
2022/12/05 13:52:43;;;;;;;46.22;17.95;;;;;;;;;;5074105;28;20044;-79
2022/12/05 13:55:26;;;;;;;44.20;17.23;;;;;;;;;;5041647;28;20036;-80
2022/12/05 13:57:53;;;;;;;51.47;20.30;;;;;;;;;;5073877;28;20119;-80
2022/12/05 14:00:48;;;;;;;55.42;20.70;;;;;;;;;;5076697;28;20044;-79
2022/12/05 14:03:32;;;;;;;50.38;20.55;;;;;;;;;;5074529;28;20036;-80
2022/12/05 14:05:57;;;;;;;59.42;22.25;;;;;;;;;;5075507;28;20036;-80
2022/12/05 14:08:34;;;;;;;50.17;20.23;;;;;;;;;;5073818;28;20017;-80
2022/12/05 14:11:02;;;;;;;46.88;19.73;;;;;;;;;;5075237;28;20414;-80
2022/12/05 14:13:29;;;;;;;47.67;19.80;;;;;;;;;;5075103;28;20060;-80
2022/12/05 14:16:15;;;;;;;54.85;22.85;;;;;;;;;;5075089;28;20123;-80
2022/12/05 14:18:52;;;;;;;47.15;21.15;;;;;;;;;;5074766;28;20424;-80
2022/12/05 14:21:34;;;;;;;56.50;25.50;;;;;;;;;;5075474;28;20430;-79
2022/12/05 14:24:20;;;;;;;56.72;23.55;;;;;;;;;;5058833;28;20158;-80
2022/12/05 14:27:06;;;;;;;56.58;23.27;;;;;;;;;;5073917;28;20042;-80
2022/12/05 14:29:53;;;;;;;56.10;22.77;;;;;;;;;;5073653;28;20111;-79
2022/12/05 14:32:22;;;;;;;44.88;19.98;;;;;;;;;;5059163;28;20032;-80
2022/12/05 14:35:02;;;;;;;56.38;20.38;;;;;;;;;;5073750;28;20029;-80
2022/12/05 14:37:29;;;;;;;50.25;18.70;;;;;;;;;;5057107;28;20074;-80
2022/12/05 14:40:24;;;;;;;45.20;17.13;;;;;;;;;;5075781;28;20032;-79
2022/12/05 14:43:06;;;;;;;55.10;21.38;;;;;;;;;;5078204;28;20137;-80
2022/12/05 14:45:39;;;;;;;57.60;19.02;;;;;;;;;;5057263;28;20028;-80
2022/12/05 14:48:14;;;;;;;43.33;17.30;;;;;;;;;;5073148;28;20020;-80
2022/12/05 14:50:41;;;;;;;50.95;18.13;;;;;;;;;;5074759;28;20397;-79
2022/12/05 14:53:19;;;;;;;44.47;17.92;;;;;;;;;;5056770;28;20045;-80
2022/12/05 14:55:45;;;;;;;47.67;17.17;;;;;;;;;;5074412;28;20028;-80
2022/12/05 14:58:16;;;;;;;36.70;15.55;;;;;;;;;;5073026;28;20116;-79
2022/12/05 15:00:42;;;;;;;37.72;15.90;;;;;;;;;;5056586;28;20052;-80